Terminal Aerodrome Forecast
Issued by NWS Cleveland, OH

Home | Current Version | Previous Version | Graphics & Text | Print | Product List | Glossary On
Versions: 1 2 3 4 5 6 7 8 9 10 11 12 13 14 15 16 17 18 19 20 21
000
FTUS41 KCLE 150700 AAA
TAFTOL
TAF AMD
KTOL 150727Z 1507/1606 34014G24KT 2SM -SN BR OVC012
      TEMPO 1507/1510 1SM -SN BR OVC006
     FM151000 30015G25KT 6SM -SN BR OVC025
      TEMPO 1510/1512 4SM -SN BR OVC012
     FM151200 31015G25KT P6SM SCT025 BKN045
      TEMPO 1512/1515 6SM -SHSN BKN025
     FM151500 31018G28KT P6SM BKN045
     FM152300 31012G18KT P6SM SCT250
     FM160300 30003KT P6SM SKC=

USA.gov is the U.S. government's official web portal to all federal, state and local government web resources and services.